Creemore, Canada
Current Conditions -  °F | °C
As of 6:00 PM on Monday 22 Dec 2014 (Local Time) from CYBN Reporting Station
Overcast Overcast  
Wind Chill: 23°   Ceiling: 1500
Heat Index: 32°   Visibility: 9mi
Dew Point: 27°   Wind: 12mph
Humidity: 80%   Direction: 140°SE
Pressure: 30.08"   Gusts: NA
Location:  44.32°N, 80.1°W
Report Text: CYBN 222300Z AUTO 14010KT 9SM OVC015 M00/M03 A3008 RMK SLP196
Loading
Personal Weather Stations






























Interactive Weather Map New forecast layout! Learn more

10-Day Weather Forecast

Advertisements
Track Severe Weather on mobile